Time;durP1;ratioP1;P1;durP2;ratioP2;P2;SDS_P1;SDS_P2;PMS_P1;PMS_P2;Temp;Humidity;BMP_temperature;BMP_pressure;BME280_temperature;BME280_humidity;BME280_pressure;Samples;Min_cycle;Max_cycle;Signal;HPM_P1;HPM_P2
2022/06/30 00:00:10;;;;;;;;;;;15.40;99.90;;;;;;5055891;28;19985;-65
2022/06/30 00:02:37;;;;;;;;;;;15.40;99.90;;;;;;5054548;28;19924;-66
2022/06/30 00:05:05;;;;;;;;;;;15.40;99.90;;;;;;5055574;28;19916;-66
2022/06/30 00:07:31;;;;;;;;;;;15.40;99.90;;;;;;5055088;28;20322;-65
2022/06/30 00:09:58;;;;;;;;;;;15.40;99.90;;;;;;5055320;28;19916;-64
2022/06/30 00:12:25;;;;;;;;;;;15.40;99.90;;;;;;5087711;28;19916;-65
2022/06/30 00:14:52;;;;;;;;;;;15.30;99.90;;;;;;5055236;28;19917;-65
2022/06/30 00:17:18;;;;;;;;;;;15.30;99.90;;;;;;5056006;28;20363;-64
2022/06/30 00:19:45;;;;;;;;;;;15.30;99.90;;;;;;5056207;28;19917;-65
2022/06/30 00:22:12;;;;;;;;;;;15.30;99.90;;;;;;5055291;28;19994;-65
2022/06/30 00:24:39;;;;;;;;;;;15.20;99.90;;;;;;5055296;28;20356;-65
2022/06/30 00:27:07;;;;;;;;;;;15.20;99.90;;;;;;5055377;28;19917;-65
2022/06/30 00:29:33;;;;;;;;;;;15.20;99.90;;;;;;5055173;28;19917;-65
2022/06/30 00:32:00;;;;;;;;;;;15.20;99.90;;;;;;5055591;28;19924;-65
2022/06/30 00:34:27;;;;;;;;;;;15.10;99.90;;;;;;5055907;28;19966;-65
2022/06/30 00:36:56;;;;;;;;;;;15.10;99.90;;;;;;5054688;28;19923;-65
2022/06/30 00:39:22;;;;;;;;;;;15.10;99.90;;;;;;5055066;28;19990;-65
2022/06/30 00:41:49;;;;;;;;;;;15.00;99.90;;;;;;5054894;28;19916;-66
2022/06/30 00:44:16;;;;;;;;;;;15.10;99.90;;;;;;5087401;28;19917;-66
2022/06/30 00:46:44;;;;;;;;;;;15.10;99.90;;;;;;5055423;28;19939;-66
2022/06/30 00:49:11;;;;;;;;;;;15.10;99.90;;;;;;5054515;28;20023;-65
2022/06/30 00:51:37;;;;;;;;;;;15.10;99.90;;;;;;5055376;28;19925;-65
2022/06/30 00:54:04;;;;;;;;;;;15.10;99.90;;;;;;5054380;28;19963;-64
2022/06/30 00:56:32;;;;;;;;;;;15.00;99.90;;;;;;5054324;28;19917;-65
2022/06/30 00:59:03;;;;;;;;;;;15.00;99.90;;;;;;5055654;28;19917;-65
2022/06/30 01:01:30;;;;;;;;;;;15.00;99.90;;;;;;5054599;28;19923;-65
2022/06/30 01:03:58;;;;;;;;;;;15.00;99.90;;;;;;5054256;28;19924;-66
2022/06/30 01:06:24;;;;;;;;;;;15.00;99.90;;;;;;5055296;28;19916;-65
2022/06/30 01:08:51;;;;;;;;;;;14.90;99.90;;;;;;5054486;28;19924;-64
2022/06/30 01:14:03;;;;;;;;;;;15.00;99.90;;;;;;5054754;28;19917;-64
2022/06/30 01:16:30;;;;;;;;;;;14.90;99.90;;;;;;5054088;28;19927;-65
2022/06/30 01:18:57;;;;;;;;;;;15.00;99.90;;;;;;5084959;28;20488;-64
2022/06/30 01:21:27;;;;;;;;;;;15.00;99.90;;;;;;5054706;28;19916;-64
2022/06/30 01:23:55;;;;;;;;;;;15.00;99.90;;;;;;5054767;28;19924;-65
2022/06/30 01:26:25;;;;;;;;;;;15.00;99.90;;;;;;5053776;28;19930;-65
2022/06/30 01:28:51;;;;;;;;;;;15.10;99.90;;;;;;5087093;28;19940;-64
2022/06/30 01:31:18;;;;;;;;;;;15.10;99.90;;;;;;5054097;28;19916;-64
2022/06/30 01:33:45;;;;;;;;;;;15.10;99.90;;;;;;5053743;28;19917;-65
2022/06/30 01:36:12;;;;;;;;;;;15.10;99.90;;;;;;5054051;28;19939;-65
2022/06/30 01:38:39;;;;;;;;;;;15.10;99.90;;;;;;5085942;28;19917;-64
2022/06/30 01:41:06;;;;;;;;;;;15.10;99.90;;;;;;5053875;28;19916;-65
2022/06/30 01:43:33;;;;;;;;;;;15.20;99.90;;;;;;5053571;28;19916;-65
2022/06/30 01:46:00;;;;;;;;;;;15.20;99.90;;;;;;5053548;28;19923;-65
2022/06/30 01:48:26;;;;;;;;;;;15.20;99.90;;;;;;5053213;28;19924;-65
2022/06/30 01:50:53;;;;;;;;;;;15.20;99.90;;;;;;5054523;28;19916;-65
2022/06/30 01:53:20;;;;;;;;;;;15.20;99.90;;;;;;5053176;28;19947;-65
2022/06/30 01:55:47;;;;;;;;;;;15.20;99.90;;;;;;5053231;28;20356;-65
2022/06/30 01:58:14;;;;;;;;;;;15.20;99.90;;;;;;5053435;28;20025;-65
2022/06/30 02:00:40;;;;;;;;;;;15.10;99.90;;;;;;5053904;28;19923;-65
2022/06/30 02:03:07;;;;;;;;;;;15.10;99.90;;;;;;5054120;28;20019;-65
2022/06/30 02:05:34;;;;;;;;;;;15.10;99.90;;;;;;5053062;28;19916;-65
2022/06/30 02:08:01;;;;;;;;;;;15.00;99.90;;;;;;5085211;28;19916;-65
2022/06/30 02:10:30;;;;;;;;;;;15.00;99.90;;;;;;5054233;28;20299;-66
2022/06/30 02:12:57;;;;;;;;;;;15.00;99.90;;;;;;5052602;28;19924;-65
2022/06/30 02:15:28;;;;;;;;;;;14.90;99.90;;;;;;5052727;28;19939;-65
2022/06/30 02:17:55;;;;;;;;;;;14.90;99.90;;;;;;5084963;28;20256;-65
2022/06/30 02:20:23;;;;;;;;;;;15.00;99.90;;;;;;5053289;28;20264;-66
2022/06/30 02:22:52;;;;;;;;;;;15.00;99.90;;;;;;5084655;28;20011;-66
2022/06/30 02:25:19;;;;;;;;;;;14.90;99.90;;;;;;5053888;28;19921;-66
2022/06/30 02:27:46;;;;;;;;;;;14.90;99.90;;;;;;5053972;28;19921;-65
2022/06/30 02:30:13;;;;;;;;;;;14.90;99.90;;;;;;5088020;28;19923;-65
2022/06/30 02:32:39;;;;;;;;;;;14.90;99.90;;;;;;5056721;28;19916;-66
2022/06/30 02:35:07;;;;;;;;;;;14.80;99.90;;;;;;5057162;28;20357;-66
2022/06/30 02:37:34;;;;;;;;;;;14.80;99.90;;;;;;5088803;28;20352;-65
2022/06/30 02:40:01;;;;;;;;;;;14.90;99.90;;;;;;5057025;28;19924;-66
2022/06/30 02:42:28;;;;;;;;;;;14.80;99.90;;;;;;5056895;28;19917;-66
2022/06/30 02:44:55;;;;;;;;;;;14.80;99.90;;;;;;5057023;28;19916;-66
2022/06/30 02:47:28;;;;;;;;;;;14.80;99.90;;;;;;5056884;28;19939;-66
2022/06/30 02:49:55;;;;;;;;;;;14.80;99.90;;;;;;5088713;28;19916;-66
2022/06/30 02:52:21;;;;;;;;;;;14.80;99.90;;;;;;5056967;28;19916;-66
2022/06/30 02:54:48;;;;;;;;;;;14.80;99.90;;;;;;5056769;28;20003;-66
2022/06/30 02:57:15;;;;;;;;;;;14.80;99.90;;;;;;5089264;28;20248;-66
2022/06/30 02:59:42;;;;;;;;;;;14.70;99.90;;;;;;5057376;28;19923;-66
2022/06/30 03:02:09;;;;;;;;;;;14.70;99.90;;;;;;5056166;28;19931;-65
2022/06/30 03:04:36;;;;;;;;;;;14.80;99.90;;;;;;5057126;28;20406;-65
2022/06/30 03:07:02;;;;;;;;;;;14.80;99.90;;;;;;5057304;28;19917;-65
2022/06/30 03:09:29;;;;;;;;;;;14.80;99.90;;;;;;5056192;28;19924;-65
2022/06/30 03:11:56;;;;;;;;;;;14.70;99.90;;;;;;5055855;28;19917;-66
2022/06/30 03:14:23;;;;;;;;;;;14.70;99.90;;;;;;5057221;28;19944;-65
2022/06/30 03:16:50;;;;;;;;;;;14.70;99.90;;;;;;5056907;28;19928;-65
2022/06/30 03:19:17;;;;;;;;;;;14.70;99.90;;;;;;5057246;28;19917;-65
2022/06/30 03:21:44;;;;;;;;;;;14.70;99.90;;;;;;5057089;28;19916;-66
2022/06/30 03:24:11;;;;;;;;;;;14.60;99.90;;;;;;5056051;28;19927;-66
2022/06/30 03:26:37;;;;;;;;;;;14.60;99.90;;;;;;5056036;28;19916;-66
2022/06/30 03:29:04;;;;;;;;;;;14.60;99.90;;;;;;5056030;28;19986;-66
2022/06/30 03:31:31;;;;;;;;;;;14.60;99.90;;;;;;5055916;28;20006;-66
2022/06/30 03:33:58;;;;;;;;;;;14.50;99.90;;;;;;5087531;28;19917;-65
2022/06/30 03:36:25;;;;;;;;;;;14.50;99.90;;;;;;5087877;28;19967;-66
2022/06/30 03:38:52;;;;;;;;;;;14.50;99.90;;;;;;5056934;28;19924;-66
2022/06/30 03:41:18;;;;;;;;;;;14.50;99.90;;;;;;5054659;28;19917;-65
2022/06/30 03:43:45;;;;;;;;;;;14.50;99.90;;;;;;5054597;28;19916;-66
2022/06/30 03:46:12;;;;;;;;;;;14.50;99.90;;;;;;5055743;28;19916;-66
2022/06/30 03:48:41;;;;;;;;;;;14.50;99.90;;;;;;5055352;28;20371;-66
2022/06/30 03:51:08;;;;;;;;;;;14.50;99.90;;;;;;5056256;28;19970;-66
2022/06/30 03:53:35;;;;;;;;;;;14.50;99.90;;;;;;5056392;28;20030;-66
2022/06/30 03:56:02;;;;;;;;;;;14.50;99.90;;;;;;5055358;28;20398;-66
2022/06/30 03:58:29;;;;;;;;;;;14.50;99.90;;;;;;5055722;28;20383;-66
2022/06/30 04:00:56;;;;;;;;;;;14.40;99.90;;;;;;5055221;28;19939;-66
2022/06/30 04:03:22;;;;;;;;;;;14.40;99.90;;;;;;5055251;28;19974;-66
2022/06/30 04:05:49;;;;;;;;;;;14.40;99.90;;;;;;5055438;28;19941;-66
2022/06/30 04:08:16;;;;;;;;;;;14.50;99.90;;;;;;5055236;28;20256;-66
2022/06/30 04:10:43;;;;;;;;;;;14.50;99.90;;;;;;5055864;28;19922;-66
2022/06/30 04:13:09;;;;;;;;;;;14.40;99.90;;;;;;5054995;28;20019;-65
2022/06/30 04:15:36;;;;;;;;;;;14.50;99.90;;;;;;5054835;28;20264;-65
2022/06/30 04:18:03;;;;;;;;;;;14.40;99.90;;;;;;5054876;28;20359;-65
2022/06/30 04:20:30;;;;;;;;;;;14.50;99.90;;;;;;5054873;28;19917;-65
2022/06/30 04:22:57;;;;;;;;;;;14.50;99.90;;;;;;5053729;28;19917;-65
2022/06/30 04:25:23;;;;;;;;;;;14.40;99.90;;;;;;5054676;28;19923;-65
2022/06/30 04:27:52;;;;;;;;;;;14.50;99.90;;;;;;5054682;28;19920;-65
2022/06/30 04:33:04;;;;;;;;;;;14.50;99.90;;;;;;5054601;28;20018;-65
2022/06/30 04:35:31;;;;;;;;;;;14.60;99.90;;;;;;5055511;28;19917;-65
2022/06/30 04:37:58;;;;;;;;;;;14.60;99.90;;;;;;5054745;28;20007;-65
2022/06/30 04:43:10;;;;;;;;;;;14.50;99.90;;;;;;5082739;28;19916;-66
2022/06/30 04:45:37;;;;;;;;;;;14.60;99.90;;;;;;5087326;28;19924;-66
2022/06/30 04:48:04;;;;;;;;;;;14.60;99.90;;;;;;5054575;28;19917;-66
2022/06/30 04:50:31;;;;;;;;;;;14.60;99.90;;;;;;5054371;28;19917;-65
2022/06/30 04:52:57;;;;;;;;;;;14.60;99.90;;;;;;5053551;28;20349;-65
2022/06/30 04:55:24;;;;;;;;;;;14.60;99.90;;;;;;5054496;28;19924;-66
2022/06/30 04:57:52;;;;;;;;;;;14.70;99.90;;;;;;5054038;28;19935;-66
2022/06/30 05:00:19;;;;;;;;;;;14.70;99.90;;;;;;5054932;28;19921;-66
2022/06/30 05:02:46;;;;;;;;;;;14.70;99.90;;;;;;5054249;28;19928;-66
2022/06/30 05:05:12;;;;;;;;;;;14.80;99.90;;;;;;5055157;28;20268;-66
2022/06/30 05:07:39;;;;;;;;;;;14.80;99.90;;;;;;5053412;28;19924;-65
2022/06/30 05:10:06;;;;;;;;;;;14.80;99.90;;;;;;5054723;28;20310;-65
2022/06/30 05:12:33;;;;;;;;;;;14.80;99.90;;;;;;5054794;28;19917;-65
2022/06/30 05:15:00;;;;;;;;;;;14.80;99.90;;;;;;5054334;28;19920;-65
2022/06/30 05:17:26;;;;;;;;;;;14.90;99.90;;;;;;5054720;28;19939;-65
2022/06/30 05:19:53;;;;;;;;;;;14.90;99.90;;;;;;5054107;28;19924;-65
2022/06/30 05:22:20;;;;;;;;;;;14.90;99.90;;;;;;5054574;28;19916;-65
2022/06/30 05:27:34;;;;;;;;;;;14.90;99.90;;;;;;5054904;28;20295;-65
2022/06/30 05:30:01;;;;;;;;;;;14.90;99.90;;;;;;5086163;28;20341;-66
2022/06/30 05:32:27;;;;;;;;;;;14.90;99.90;;;;;;5053698;28;19917;-65
2022/06/30 05:34:54;;;;;;;;;;;14.90;99.90;;;;;;5053713;28;20264;-66
2022/06/30 05:37:21;;;;;;;;;;;15.00;99.90;;;;;;5053463;28;19917;-66
2022/06/30 05:39:48;;;;;;;;;;;14.90;99.90;;;;;;5053925;28;19920;-66
2022/06/30 05:42:14;;;;;;;;;;;15.00;99.90;;;;;;5054400;28;19923;-66
2022/06/30 05:44:42;;;;;;;;;;;15.00;99.90;;;;;;5053851;28;19928;-66
2022/06/30 05:47:09;;;;;;;;;;;15.10;99.90;;;;;;5052804;28;19923;-66
2022/06/30 05:49:37;;;;;;;;;;;15.10;99.90;;;;;;5053874;28;20383;-66
2022/06/30 05:52:04;;;;;;;;;;;15.20;99.90;;;;;;5053768;28;20329;-66
2022/06/30 05:54:31;;;;;;;;;;;15.30;99.90;;;;;;5085633;28;19924;-66
2022/06/30 05:56:57;;;;;;;;;;;15.40;99.90;;;;;;5054310;28;19916;-66
2022/06/30 05:59:25;;;;;;;;;;;15.60;99.90;;;;;;5053714;28;19995;-66
2022/06/30 06:01:52;;;;;;;;;;;15.60;99.90;;;;;;5053799;28;19921;-66
2022/06/30 06:04:19;;;;;;;;;;;15.70;99.90;;;;;;5054259;28;19917;-66
2022/06/30 06:06:47;;;;;;;;;;;15.80;99.90;;;;;;5089794;28;19962;-66
2022/06/30 06:09:14;;;;;;;;;;;15.80;99.90;;;;;;5058141;28;19917;-70
2022/06/30 06:11:42;;;;;;;;;;;15.80;99.90;;;;;;5057523;28;19916;-66
2022/06/30 06:14:09;;;;;;;;;;;15.90;99.90;;;;;;5057694;28;19916;-66
2022/06/30 06:16:35;;;;;;;;;;;15.90;99.90;;;;;;5057303;28;19923;-66
2022/06/30 06:19:02;;;;;;;;;;;15.90;99.90;;;;;;5056248;28;19967;-66
2022/06/30 06:21:29;;;;;;;;;;;15.90;99.90;;;;;;5058233;28;19924;-66
2022/06/30 06:23:56;;;;;;;;;;;15.90;99.90;;;;;;5056903;28;20012;-65
2022/06/30 06:26:23;;;;;;;;;;;15.90;99.90;;;;;;5057281;28;19958;-71
2022/06/30 06:29:13;;;;;;;;;;;15.90;99.90;;;;;;5057279;28;19923;-72
2022/06/30 06:31:40;;;;;;;;;;;16.00;99.90;;;;;;5057746;28;19917;-69
2022/06/30 06:34:07;;;;;;;;;;;16.00;99.90;;;;;;5057116;28;19917;-70
2022/06/30 06:36:34;;;;;;;;;;;16.00;99.90;;;;;;5073127;28;19924;-70
2022/06/30 06:39:01;;;;;;;;;;;16.10;99.90;;;;;;5088969;28;19917;-70
2022/06/30 06:41:28;;;;;;;;;;;16.10;99.90;;;;;;5056884;28;19923;-68
2022/06/30 06:43:54;;;;;;;;;;;16.20;99.90;;;;;;5089356;28;19922;-68
2022/06/30 06:46:26;;;;;;;;;;;16.30;99.90;;;;;;5089607;28;19939;-69
2022/06/30 06:49:00;;;;;;;;;;;16.40;99.90;;;;;;5058002;28;19920;-69
2022/06/30 06:51:27;;;;;;;;;;;16.40;99.90;;;;;;5056218;28;20348;-69
2022/06/30 06:53:55;;;;;;;;;;;16.50;99.90;;;;;;5056516;28;19960;-68
2022/06/30 06:56:21;;;;;;;;;;;16.50;99.90;;;;;;5088369;28;19916;-70
2022/06/30 06:58:54;;;;;;;;;;;16.50;99.90;;;;;;5057107;28;19916;-69
2022/06/30 07:01:21;;;;;;;;;;;16.60;99.90;;;;;;5057190;28;19923;-69
2022/06/30 07:03:48;;;;;;;;;;;16.60;99.90;;;;;;5056281;28;19920;-69
2022/06/30 07:06:15;;;;;;;;;;;16.60;99.90;;;;;;5057348;28;19924;-69
2022/06/30 07:08:42;;;;;;;;;;;16.70;99.90;;;;;;5056329;28;19917;-70
2022/06/30 07:11:09;;;;;;;;;;;16.80;99.90;;;;;;5056292;28;20249;-69
2022/06/30 07:13:36;;;;;;;;;;;16.90;99.90;;;;;;5057409;28;19916;-70
2022/06/30 07:16:03;;;;;;;;;;;16.90;99.90;;;;;;5087038;28;20372;-70
2022/06/30 07:18:30;;;;;;;;;;;17.00;99.90;;;;;;5056036;28;19916;-69
2022/06/30 07:20:57;;;;;;;;;;;17.00;99.90;;;;;;5055314;28;19917;-72
2022/06/30 07:23:24;;;;;;;;;;;16.90;99.90;;;;;;5056037;28;19916;-72
2022/06/30 07:25:55;;;;;;;;;;;17.00;99.90;;;;;;5056865;28;19955;-69
2022/06/30 07:28:21;;;;;;;;;;;17.00;99.90;;;;;;5056622;28;19920;-69
2022/06/30 07:31:09;;;;;;;;;;;17.00;99.90;;;;;;5056553;28;19916;-70
2022/06/30 07:33:35;;;;;;;;;;;17.10;99.90;;;;;;5055931;28;19921;-70
2022/06/30 07:36:02;;;;;;;;;;;17.10;99.90;;;;;;5055934;28;20430;-70
2022/06/30 07:38:29;;;;;;;;;;;17.00;99.90;;;;;;5056001;28;19958;-71
2022/06/30 07:40:56;;;;;;;;;;;17.00;99.90;;;;;;5056056;28;19924;-72
2022/06/30 07:43:23;;;;;;;;;;;17.00;99.90;;;;;;5087600;28;19936;-71
2022/06/30 07:45:51;;;;;;;;;;;17.00;99.90;;;;;;5055675;28;20288;-70
2022/06/30 07:48:18;;;;;;;;;;;16.90;99.90;;;;;;5056007;28;20019;-69
2022/06/30 07:50:45;;;;;;;;;;;16.90;99.90;;;;;;5055535;28;19917;-69
2022/06/30 07:53:12;;;;;;;;;;;16.90;99.90;;;;;;5055724;28;19916;-70
2022/06/30 07:55:39;;;;;;;;;;;17.00;99.90;;;;;;5056464;28;19917;-70
2022/06/30 07:58:06;;;;;;;;;;;17.10;99.90;;;;;;5055780;28;19923;-69
2022/06/30 08:00:34;;;;;;;;;;;17.30;99.90;;;;;;5056548;28;19943;-71
2022/06/30 08:03:01;;;;;;;;;;;17.40;99.90;;;;;;5055760;28;19924;-66
2022/06/30 08:05:27;;;;;;;;;;;17.50;99.90;;;;;;5054033;28;19924;-70
2022/06/30 08:07:55;;;;;;;;;;;17.60;99.90;;;;;;5055938;28;19916;-69
2022/06/30 08:10:22;;;;;;;;;;;17.70;99.90;;;;;;5087201;28;19922;-71
2022/06/30 08:12:49;;;;;;;;;;;17.90;99.90;;;;;;5056276;28;20283;-69
2022/06/30 08:15:16;;;;;;;;;;;18.00;99.90;;;;;;5055434;28;19917;-70
2022/06/30 08:17:43;;;;;;;;;;;18.10;99.90;;;;;;5055698;28;19920;-69
2022/06/30 08:20:09;;;;;;;;;;;18.10;99.90;;;;;;5055056;28;19920;-68
2022/06/30 08:22:36;;;;;;;;;;;18.00;99.90;;;;;;5054846;28;19923;-72
2022/06/30 08:25:03;;;;;;;;;;;17.90;99.90;;;;;;5054953;28;20369;-70
2022/06/30 08:27:30;;;;;;;;;;;17.90;99.90;;;;;;5055228;28;19920;-65
2022/06/30 08:29:57;;;;;;;;;;;18.00;99.90;;;;;;5054783;28;19923;-65
2022/06/30 08:32:24;;;;;;;;;;;18.00;99.90;;;;;;5055008;28;19920;-66
2022/06/30 08:34:50;;;;;;;;;;;18.00;99.90;;;;;;5054980;28;19916;-65
2022/06/30 08:37:17;;;;;;;;;;;18.00;99.90;;;;;;5055328;28;19916;-66
2022/06/30 08:42:30;;;;;;;;;;;18.10;99.90;;;;;;5054954;28;19924;-67
2022/06/30 08:45:17;;;;;;;;;;;18.10;99.90;;;;;;5054918;28;19916;-67
2022/06/30 08:47:45;;;;;;;;;;;18.20;99.90;;;;;;5081861;28;20023;-67
2022/06/30 08:50:14;;;;;;;;;;;18.30;99.90;;;;;;5054709;28;19916;-67
2022/06/30 08:52:44;;;;;;;;;;;18.40;99.90;;;;;;5054618;28;19921;-66
2022/06/30 08:55:11;;;;;;;;;;;18.50;99.90;;;;;;5054169;28;19936;-64
2022/06/30 08:57:38;;;;;;;;;;;18.60;99.90;;;;;;5054791;28;19917;-67
2022/06/30 09:00:05;;;;;;;;;;;18.80;99.90;;;;;;5086941;28;19996;-67
2022/06/30 09:02:32;;;;;;;;;;;18.90;99.90;;;;;;5054083;28;19916;-67
2022/06/30 09:04:59;;;;;;;;;;;18.80;99.90;;;;;;5054893;28;19921;-67
2022/06/30 09:07:26;;;;;;;;;;;18.80;99.90;;;;;;5086209;28;20355;-67
2022/06/30 09:09:53;;;;;;;;;;;18.80;99.90;;;;;;5086061;28;19920;-66
2022/06/30 09:12:20;;;;;;;;;;;18.80;99.90;;;;;;5054283;28;19916;-66
2022/06/30 09:14:47;;;;;;;;;;;18.70;99.90;;;;;;5086231;28;20044;-67
2022/06/30 09:17:17;;;;;;;;;;;18.70;99.90;;;;;;5087227;28;20264;-67
2022/06/30 09:19:51;;;;;;;;;;;18.70;99.90;;;;;;5054357;28;19924;-67
2022/06/30 09:22:17;;;;;;;;;;;18.80;99.90;;;;;;5053855;28;19963;-67
2022/06/30 09:24:44;;;;;;;;;;;18.90;99.90;;;;;;5054112;28;19917;-67
2022/06/30 09:27:16;;;;;;;;;;;18.90;99.90;;;;;;5087094;28;19928;-67
2022/06/30 09:30:04;;;;;;;;;;;18.70;99.90;;;;;;5086267;28;19922;-69
2022/06/30 09:32:45;;;;;;;;;;;18.70;99.90;;;;;;5054611;28;19916;-59
2022/06/30 09:35:12;;;;;;;;;;;18.50;99.90;;;;;;5053787;28;19923;-66
2022/06/30 09:37:39;;;;;;;;;;;18.50;99.90;;;;;;5053792;28;19916;-67
2022/06/30 09:40:07;;;;;;;;;;;18.50;99.90;;;;;;5052899;28;19923;-67
2022/06/30 09:42:36;;;;;;;;;;;18.60;99.90;;;;;;5052257;28;19921;-67
2022/06/30 09:45:31;;;;;;;;;;;18.70;99.90;;;;;;5054577;28;19917;-66
2022/06/30 09:47:58;;;;;;;;;;;18.70;99.90;;;;;;5085562;28;19923;-66
2022/06/30 09:50:25;;;;;;;;;;;18.80;99.90;;;;;;5053278;28;20418;-67
2022/06/30 09:53:04;;;;;;;;;;;18.80;99.90;;;;;;5053504;28;20348;-66
2022/06/30 09:55:44;;;;;;;;;;;18.80;99.90;;;;;;5052278;28;19917;-67
2022/06/30 09:58:12;;;;;;;;;;;18.80;99.90;;;;;;5085184;28;19928;-67
2022/06/30 10:00:43;;;;;;;;;;;18.90;99.90;;;;;;5069449;28;20098;-67
2022/06/30 10:03:10;;;;;;;;;;;18.90;99.90;;;;;;5085288;28;20011;-67
2022/06/30 10:05:43;;;;;;;;;;;19.00;99.90;;;;;;5085499;28;19923;-67
2022/06/30 10:08:13;;;;;;;;;;;19.10;99.90;;;;;;5083594;28;19917;-67
2022/06/30 10:10:41;;;;;;;;;;;19.20;99.90;;;;;;5053747;28;19924;-67
2022/06/30 10:13:15;;;;;;;;;;;19.10;99.90;;;;;;5053154;28;19925;-67
2022/06/30 10:15:52;;;;;;;;;;;19.10;99.90;;;;;;5053007;28;19917;-66
2022/06/30 10:18:20;;;;;;;;;;;19.20;99.90;;;;;;5053343;28;19924;-66
2022/06/30 10:20:47;;;;;;;;;;;19.30;99.90;;;;;;5053750;28;19916;-66
2022/06/30 10:23:14;;;;;;;;;;;19.20;99.90;;;;;;5085107;28;19924;-66
2022/06/30 10:25:41;;;;;;;;;;;19.20;99.90;;;;;;5085342;28;20007;-66
2022/06/30 10:28:08;;;;;;;;;;;19.20;99.90;;;;;;5085854;28;19921;-66
2022/06/30 10:30:53;;;;;;;;;;;19.20;99.90;;;;;;5052968;28;20383;-66
2022/06/30 10:33:31;;;;;;;;;;;19.20;99.90;;;;;;5085438;28;19923;-67
2022/06/30 10:36:10;;;;;;;;;;;19.20;99.90;;;;;;5085287;28;19952;-66
2022/06/30 10:38:37;;;;;;;;;;;19.40;99.90;;;;;;5085101;28;19916;-66
2022/06/30 10:41:10;;;;;;;;;;;19.50;99.90;;;;;;5053013;28;19917;-66
2022/06/30 10:43:56;;;;;;;;;;;19.60;99.90;;;;;;5083940;28;19917;-65
2022/06/30 10:46:23;;;;;;;;;;;19.60;99.90;;;;;;5053634;28;19923;-76
2022/06/30 10:48:50;;;;;;;;;;;19.70;99.90;;;;;;5052983;28;19916;-63
2022/06/30 10:51:17;;;;;;;;;;;19.80;99.90;;;;;;5088099;28;19928;-64
2022/06/30 10:53:44;;;;;;;;;;;19.80;99.90;;;;;;5056926;28;19917;-65
2022/06/30 10:56:16;;;;;;;;;;;19.80;99.90;;;;;;5056409;28;19921;-65
2022/06/30 10:59:03;;;;;;;;;;;19.70;99.90;;;;;;5089236;28;19917;-66
2022/06/30 11:01:30;;;;;;;;;;;19.60;99.90;;;;;;5055334;28;19917;-65
2022/06/30 11:03:57;;;;;;;;;;;19.60;99.90;;;;;;5055470;28;20019;-64
2022/06/30 11:06:44;;;;;;;;;;;19.50;99.90;;;;;;5056267;28;19954;-66
2022/06/30 11:09:11;;;;;;;;;;;19.50;99.90;;;;;;5056602;28;20420;-67
2022/06/30 11:11:42;;;;;;;;;;;19.50;99.90;;;;;;5056151;28;19917;-68
2022/06/30 11:14:17;;;;;;;;;;;19.40;99.90;;;;;;5056738;28;20348;-65
2022/06/30 11:16:46;;;;;;;;;;;19.10;99.90;;;;;;5056013;28;20342;-64
2022/06/30 11:19:14;;;;;;;;;;;18.60;99.90;;;;;;5055977;28;19916;-65
2022/06/30 11:21:44;;;;;;;;;;;18.00;99.90;;;;;;5056345;28;19924;-67
2022/06/30 11:24:11;;;;;;;;;;;17.70;99.90;;;;;;5056720;28;19928;-69
2022/06/30 11:29:26;;;;;;;;;;;17.10;99.90;;;;;;5083329;28;19916;-66
2022/06/30 11:31:59;;;;;;;;;;;16.90;99.90;;;;;;5055890;28;19917;-68
2022/06/30 11:34:27;;;;;;;;;;;16.80;99.90;;;;;;5055823;28;19921;-69
2022/06/30 11:36:54;;;;;;;;;;;16.90;99.90;;;;;;5054744;28;19916;-69
2022/06/30 11:39:20;;;;;;;;;;;17.00;99.90;;;;;;5054427;28;20367;-68
2022/06/30 11:41:57;;;;;;;;;;;17.10;99.90;;;;;;5088076;28;19917;-68
2022/06/30 11:44:32;;;;;;;;;;;17.20;99.90;;;;;;5086179;28;19924;-68
2022/06/30 11:46:59;;;;;;;;;;;17.40;99.90;;;;;;5055458;28;19923;-71
2022/06/30 11:49:39;;;;;;;;;;;17.50;99.90;;;;;;5056018;28;20357;-75
2022/06/30 11:52:15;;;;;;;;;;;17.70;99.90;;;;;;5055718;28;19921;-67
2022/06/30 11:54:49;;;;;;;;;;;17.90;99.90;;;;;;5055392;28;19917;-68
2022/06/30 11:57:16;;;;;;;;;;;18.10;99.90;;;;;;5054440;28;20319;-68
2022/06/30 11:59:52;;;;;;;;;;;18.30;99.90;;;;;;5055404;28;20383;-71
2022/06/30 12:02:19;;;;;;;;;;;18.40;99.90;;;;;;5055150;28;20232;-70
2022/06/30 12:04:49;;;;;;;;;;;18.50;99.90;;;;;;5055668;28;20233;-73
2022/06/30 12:07:17;;;;;;;;;;;18.50;99.90;;;;;;5088083;28;20338;-69
2022/06/30 12:09:44;;;;;;;;;;;18.60;99.90;;;;;;5055809;28;19946;-70
2022/06/30 12:12:14;;;;;;;;;;;18.60;99.90;;;;;;5055076;28;19928;-69
2022/06/30 12:14:43;;;;;;;;;;;18.60;99.90;;;;;;5086667;28;19968;-71
2022/06/30 12:17:10;;;;;;;;;;;18.50;99.90;;;;;;5087360;28;19917;-69
2022/06/30 12:19:37;;;;;;;;;;;18.40;99.90;;;;;;5087909;28;19917;-69
2022/06/30 12:22:04;;;;;;;;;;;18.30;99.90;;;;;;5087002;28;19963;-70
2022/06/30 12:24:31;;;;;;;;;;;18.40;99.90;;;;;;5054804;28;19916;-66
2022/06/30 12:26:58;;;;;;;;;;;18.50;99.90;;;;;;5087056;28;19923;-69
2022/06/30 12:29:25;;;;;;;;;;;18.70;99.90;;;;;;5087776;28;19924;-69
2022/06/30 12:32:10;;;;;;;;;;;18.80;99.90;;;;;;5055131;28;19939;-69
2022/06/30 12:34:50;;;;;;;;;;;18.90;99.90;;;;;;5054924;28;20280;-68
2022/06/30 12:37:24;;;;;;;;;;;18.80;99.90;;;;;;5053436;28;20481;-68
2022/06/30 12:39:51;;;;;;;;;;;18.70;99.90;;;;;;5071058;28;19916;-68
2022/06/30 12:42:18;;;;;;;;;;;18.70;99.90;;;;;;5087163;28;19924;-70
2022/06/30 12:44:46;;;;;;;;;;;18.70;99.90;;;;;;5087709;28;19995;-69
2022/06/30 12:47:13;;;;;;;;;;;18.60;99.90;;;;;;5054606;28;19917;-68
2022/06/30 12:49:40;;;;;;;;;;;18.70;99.90;;;;;;5086529;28;19916;-68
2022/06/30 12:52:17;;;;;;;;;;;18.70;99.90;;;;;;5053212;28;19960;-67
2022/06/30 12:54:54;;;;;;;;;;;18.80;99.90;;;;;;5086514;28;20356;-69
2022/06/30 12:57:21;;;;;;;;;;;18.70;99.90;;;;;;5069463;28;19916;-68
2022/06/30 12:59:52;;;;;;;;;;;18.70;99.90;;;;;;5086617;28;19917;-66
2022/06/30 13:02:20;;;;;;;;;;;18.60;99.90;;;;;;5086574;28;19916;-65
2022/06/30 13:04:52;;;;;;;;;;;18.60;99.90;;;;;;5052626;28;19924;-63
2022/06/30 13:07:19;;;;;;;;;;;18.60;99.90;;;;;;5054316;28;19964;-65
2022/06/30 13:09:48;;;;;;;;;;;18.60;99.90;;;;;;5055092;28;19939;-66
2022/06/30 13:12:16;;;;;;;;;;;18.70;99.90;;;;;;5085382;28;19916;-66
2022/06/30 13:14:43;;;;;;;;;;;18.70;99.90;;;;;;5053944;28;19916;-66
2022/06/30 13:17:10;;;;;;;;;;;18.70;99.90;;;;;;5086275;28;19916;-65
2022/06/30 13:19:37;;;;;;;;;;;18.70;99.90;;;;;;5054124;28;20360;-64
2022/06/30 13:22:04;;;;;;;;;;;18.70;99.90;;;;;;5054850;28;20348;-65
2022/06/30 13:24:32;;;;;;;;;;;18.70;99.90;;;;;;5085814;28;19922;-65
2022/06/30 13:27:03;;;;;;;;;;;18.60;99.90;;;;;;5053686;28;20367;-66
2022/06/30 13:29:30;;;;;;;;;;;18.60;99.90;;;;;;5054604;28;19984;-65
2022/06/30 13:31:57;;;;;;;;;;;18.60;99.90;;;;;;5053695;28;19916;-70
2022/06/30 13:34:25;;;;;;;;;;;18.70;99.90;;;;;;5053559;28;19923;-67
2022/06/30 13:36:52;;;;;;;;;;;18.80;99.90;;;;;;5085706;28;19986;-67
2022/06/30 13:39:19;;;;;;;;;;;18.80;99.90;;;;;;5085585;28;19916;-66
2022/06/30 13:41:46;;;;;;;;;;;18.80;99.90;;;;;;5052310;28;20031;-69
2022/06/30 13:44:15;;;;;;;;;;;18.80;99.90;;;;;;5085721;28;19916;-66
2022/06/30 13:46:42;;;;;;;;;;;18.80;99.90;;;;;;5053430;28;20391;-70
2022/06/30 13:49:09;;;;;;;;;;;18.80;99.90;;;;;;5085554;28;20361;-72
2022/06/30 13:51:42;;;;;;;;;;;18.90;99.90;;;;;;5067996;28;19917;-69
2022/06/30 13:54:11;;;;;;;;;;;18.90;99.90;;;;;;5053259;28;19945;-69
2022/06/30 13:56:38;;;;;;;;;;;18.80;99.90;;;;;;5054014;28;19916;-69
2022/06/30 13:59:05;;;;;;;;;;;18.80;99.90;;;;;;5053675;28;20463;-68
2022/06/30 14:01:33;;;;;;;;;;;18.80;99.90;;;;;;5053567;28;19920;-69
2022/06/30 14:04:01;;;;;;;;;;;18.90;99.90;;;;;;5053164;28;19967;-70
2022/06/30 14:06:28;;;;;;;;;;;18.90;99.90;;;;;;5068371;28;19916;-71
2022/06/30 14:08:55;;;;;;;;;;;19.00;99.90;;;;;;5051785;28;19971;-70
2022/06/30 14:11:22;;;;;;;;;;;19.00;99.90;;;;;;5053992;28;19925;-69
2022/06/30 14:13:49;;;;;;;;;;;19.00;99.90;;;;;;5053505;28;19917;-70
2022/06/30 14:16:16;;;;;;;;;;;19.10;99.90;;;;;;5068580;28;19917;-72
2022/06/30 14:18:43;;;;;;;;;;;19.20;99.90;;;;;;5085108;28;19923;-69
2022/06/30 14:21:10;;;;;;;;;;;19.30;99.90;;;;;;5053035;28;20019;-71
2022/06/30 14:23:36;;;;;;;;;;;19.30;99.90;;;;;;5053343;28;19916;-68
2022/06/30 14:26:03;;;;;;;;;;;19.40;99.90;;;;;;5054949;28;20393;-69
2022/06/30 14:28:30;;;;;;;;;;;19.60;99.90;;;;;;5057385;28;20299;-73
2022/06/30 14:30:57;;;;;;;;;;;19.70;99.90;;;;;;5089181;28;20398;-73
2022/06/30 14:33:24;;;;;;;;;;;19.90;99.90;;;;;;5055855;28;20360;-66
2022/06/30 14:35:51;;;;;;;;;;;20.10;99.90;;;;;;5055604;28;19967;-66
2022/06/30 14:38:18;;;;;;;;;;;20.30;99.90;;;;;;5057864;28;19917;-67